Centenario Blu — 3FXD7 — position and weather

sailwx.info

Track history (hours):
 
Tides and Currents Weather Stations Pressure Air Temp Water Temp Dewpoint Dewpoint Depression Visibility Wind Speed Wind Dir Waves Ship Positions

Centenario Blu

Last reported at 2014-Sep-19 13:33 UTC. Time now 2014-Sep-20 00:00 UTC.
Position N 22°51' E 120°02'.

Length 190 m; draft 6.2 m.

Type: Cargo ship. MMSI: 356832000.

Date/timePositionNaut miles runAvg speedWind from/ knotsBaromVisibWave heightAir tempDewpointWater temp
2014-Sep-19 13:33N 22°51' E 120°02'1212.3
2014-Sep-19 12:33N 22°41' E 120°09'9 8.8
2014-Sep-19 11:33N 22°34' E 120°15'0 0.0
2014-Sep-19 10:29N 22°33' E 120°15'0 0.0
2014-Sep-19 09:29N 22°33' E 120°15'0 0.0
2014-Sep-19 08:11N 22°34' E 120°15'0 0.0
2014-Sep-19 07:29N 22°33' E 120°15'0 0.0
2014-Sep-19 06:32N 22°34' E 120°15'0 0.0
2014-Sep-19 05:32N 22°34' E 120°15'0 0.0
2014-Sep-19 03:26N 22°34' E 120°15'0 0.0
2014-Sep-19 01:23N 22°34' E 120°15'0 0.0
2014-Sep-19 00:29N 22°34' E 120°15'0 0.0
2014-Sep-18 23:29N 22°33' E 120°15'0 0.0
2014-Sep-18 22:29N 22°33' E 120°15'0 0.0
2014-Sep-18 21:29N 22°33' E 120°15'0 0.0
2014-Sep-18 20:29N 22°33' E 120°15'0 0.0
2014-Sep-18 19:29N 22°33' E 120°15'0 0.0
2014-Sep-18 18:29N 22°33' E 120°15'0 0.0
2014-Sep-18 17:29N 22°33' E 120°15'0 0.0
2014-Sep-18 16:29N 22°33' E 120°15'0 0.0
2014-Sep-18 15:29N 22°33' E 120°15'0 0.0
2014-Sep-18 14:29N 22°33' E 120°15'0 0.0
2014-Sep-18 13:29N 22°33' E 120°15'0 0.0
2014-Sep-18 12:29N 22°33' E 120°15'0 0.0
2014-Sep-18 11:29N 22°33' E 120°15'0 0.0
2014-Sep-18 10:29N 22°33' E 120°15'0 0.0
2014-Sep-18 09:11N 22°33' E 120°15'0 0.0
2014-Sep-18 08:23N 22°33' E 120°15'0 0.0
2014-Sep-18 07:29N 22°33' E 120°15'0 0.0
2014-Sep-18 06:29N 22°34' E 120°15'0 0.0
2014-Sep-18 05:23N 22°34' E 120°15'0 0.0
2014-Sep-18 02:29N 22°34' E 120°15'0 0.0
2014-Sep-18 01:17N 22°34' E 120°15'0 0.0
2014-Sep-18 00:29N 22°34' E 120°15'0 0.0
2014-Sep-17 23:29N 22°34' E 120°15'0 0.1
2014-Sep-17 22:29N 22°34' E 120°15'0 0.0
2014-Sep-17 21:29N 22°33' E 120°15'0 0.0
2014-Sep-17 20:29N 22°33' E 120°15'0 0.0
2014-Sep-17 19:29N 22°33' E 120°15'0 0.0
2014-Sep-17 18:29N 22°34' E 120°15'0 0.0
2014-Sep-17 17:29N 22°34' E 120°15'0 0.0
2014-Sep-17 16:29N 22°33' E 120°15'0 0.0
2014-Sep-17 15:29N 22°34' E 120°15'0 0.0
2014-Sep-17 14:29N 22°34' E 120°15'0 0.0
2014-Sep-17 13:29N 22°34' E 120°15'0 0.0
2014-Sep-17 12:29N 22°34' E 120°15'0 0.0
2014-Sep-17 11:32N 22°34' E 120°15'0 0.0
2014-Sep-17 10:32N 22°34' E 120°15'0 0.0
2014-Sep-17 08:08N 22°34' E 120°15'0 0.0
2014-Sep-17 07:32N 22°34' E 120°15'0 0.3
2014-Sep-17 06:33N 22°33' E 120°15'4 4.3
2014-Sep-17 05:33N 22°33' E 120°19'0 0.0
2014-Sep-17 00:26N 22°33' E 120°19'0 0.0
2014-Sep-16 16:32N 22°33' E 120°19'0 0.0
2014-Sep-16 12:32N 22°33' E 120°19'0 0.0
2014-Sep-16 09:32N 22°33' E 120°19'0 0.0
2014-Sep-16 08:26N 22°33' E 120°19'0 0.0
2014-Sep-16 07:20N 22°33' E 120°19'0 0.0
2014-Sep-16 06:08N 22°33' E 120°19'0 0.0
2014-Sep-16 05:20N 22°33' E 120°19'0 0.0
2014-Sep-16 01:22N 22°33' E 120°19'5 6.2
2014-Sep-16 00:33N 22°32' E 120°14'1010.3
2014-Sep-15 23:33N 22°41' E 120°08'1111.5
2014-Sep-15 22:33N 22°51' E 120°02'  
2014-Sep-12 08:32N 24°17' E 120°31'0 0.0
2014-Sep-10 19:14N 24°17' E 120°31'0 0.0
2014-Sep-10 17:14N 24°17' E 120°31'0 0.0
2014-Sep-10 11:32N 24°17' E 120°31'0 0.0
2014-Sep-10 10:32N 24°17' E 120°31'0 0.0
2014-Sep-10 09:20N 24°17' E 120°31'0 0.0
2014-Sep-10 06:08N 24°17' E 120°31'0 0.0
2014-Sep-10 05:26N 24°17' E 120°31'  
Track history (hours):
 
Tides and Currents Weather Stations Pressure Air Temp Water Temp Dewpoint Dewpoint Depression Visibility Wind Speed Wind Dir Waves Ship Positions

Centenario Blu

Last reported at 2014-Sep-19 13:33 UTC. Time now 2014-Sep-20 00:00 UTC.
Position N 22°51' E 120°02'.

Length 190 m; draft 6.2 m.

Type: Cargo ship. MMSI: 356832000.

Date/timePositionNaut miles runAvg speedWind from/ knotsBaromVisibWave heightAir tempDewpointWater temp
2014-Sep-19 13:33N 22°51' E 120°02'1212.3
2014-Sep-19 12:33N 22°41' E 120°09'9 8.8
2014-Sep-19 11:33N 22°34' E 120°15'0 0.0
2014-Sep-19 10:29N 22°33' E 120°15'0 0.0
2014-Sep-19 09:29N 22°33' E 120°15'0 0.0
2014-Sep-19 08:11N 22°34' E 120°15'0 0.0
2014-Sep-19 07:29N 22°33' E 120°15'0 0.0
2014-Sep-19 06:32N 22°34' E 120°15'0 0.0
2014-Sep-19 05:32N 22°34' E 120°15'0 0.0
2014-Sep-19 03:26N 22°34' E 120°15'0 0.0
2014-Sep-19 01:23N 22°34' E 120°15'0 0.0
2014-Sep-19 00:29N 22°34' E 120°15'0 0.0
2014-Sep-18 23:29N 22°33' E 120°15'0 0.0
2014-Sep-18 22:29N 22°33' E 120°15'0 0.0
2014-Sep-18 21:29N 22°33' E 120°15'0 0.0
2014-Sep-18 20:29N 22°33' E 120°15'0 0.0
2014-Sep-18 19:29N 22°33' E 120°15'0 0.0
2014-Sep-18 18:29N 22°33' E 120°15'0 0.0
2014-Sep-18 17:29N 22°33' E 120°15'0 0.0
2014-Sep-18 16:29N 22°33' E 120°15'0 0.0
2014-Sep-18 15:29N 22°33' E 120°15'0 0.0
2014-Sep-18 14:29N 22°33' E 120°15'0 0.0
2014-Sep-18 13:29N 22°33' E 120°15'0 0.0
2014-Sep-18 12:29N 22°33' E 120°15'0 0.0
2014-Sep-18 11:29N 22°33' E 120°15'0 0.0
2014-Sep-18 10:29N 22°33' E 120°15'0 0.0
2014-Sep-18 09:11N 22°33' E 120°15'0 0.0
2014-Sep-18 08:23N 22°33' E 120°15'0 0.0
2014-Sep-18 07:29N 22°33' E 120°15'0 0.0
2014-Sep-18 06:29N 22°34' E 120°15'0 0.0
2014-Sep-18 05:23N 22°34' E 120°15'0 0.0
2014-Sep-18 02:29N 22°34' E 120°15'0 0.0
2014-Sep-18 01:17N 22°34' E 120°15'0 0.0
2014-Sep-18 00:29N 22°34' E 120°15'0 0.0
2014-Sep-17 23:29N 22°34' E 120°15'0 0.1
2014-Sep-17 22:29N 22°34' E 120°15'0 0.0
2014-Sep-17 21:29N 22°33' E 120°15'0 0.0
2014-Sep-17 20:29N 22°33' E 120°15'0 0.0
2014-Sep-17 19:29N 22°33' E 120°15'0 0.0
2014-Sep-17 18:29N 22°34' E 120°15'0 0.0
2014-Sep-17 17:29N 22°34' E 120°15'0 0.0
2014-Sep-17 16:29N 22°33' E 120°15'0 0.0
2014-Sep-17 15:29N 22°34' E 120°15'0 0.0
2014-Sep-17 14:29N 22°34' E 120°15'0 0.0
2014-Sep-17 13:29N 22°34' E 120°15'0 0.0
2014-Sep-17 12:29N 22°34' E 120°15'0 0.0
2014-Sep-17 11:32N 22°34' E 120°15'0 0.0
2014-Sep-17 10:32N 22°34' E 120°15'0 0.0
2014-Sep-17 08:08N 22°34' E 120°15'0 0.0
2014-Sep-17 07:32N 22°34' E 120°15'0 0.3
2014-Sep-17 06:33N 22°33' E 120°15'4 4.3
2014-Sep-17 05:33N 22°33' E 120°19'0 0.0
2014-Sep-17 00:26N 22°33' E 120°19'0 0.0
2014-Sep-16 16:32N 22°33' E 120°19'0 0.0
2014-Sep-16 12:32N 22°33' E 120°19'0 0.0
2014-Sep-16 09:32N 22°33' E 120°19'0 0.0
2014-Sep-16 08:26N 22°33' E 120°19'0 0.0
2014-Sep-16 07:20N 22°33' E 120°19'0 0.0
2014-Sep-16 06:08N 22°33' E 120°19'0 0.0
2014-Sep-16 05:20N 22°33' E 120°19'0 0.0
2014-Sep-16 01:22N 22°33' E 120°19'5 6.2
2014-Sep-16 00:33N 22°32' E 120°14'1010.3
2014-Sep-15 23:33N 22°41' E 120°08'1111.5
2014-Sep-15 22:33N 22°51' E 120°02'  
2014-Sep-12 08:32N 24°17' E 120°31'0 0.0
2014-Sep-10 19:14N 24°17' E 120°31'0 0.0
2014-Sep-10 17:14N 24°17' E 120°31'0 0.0
2014-Sep-10 11:32N 24°17' E 120°31'0 0.0
2014-Sep-10 10:32N 24°17' E 120°31'0 0.0
2014-Sep-10 09:20N 24°17' E 120°31'0 0.0
2014-Sep-10 06:08N 24°17' E 120°31'0 0.0
2014-Sep-10 05:26N 24°17' E 120°31'  

Dump ship's entire track history